sensor_id;sensor_type;location;lat;lon;timestamp;temperature;humidity
1594;DHT22;790;47.000;16.084;2022-07-29T00:00:38;19.20;99.90
1594;DHT22;790;47.000;16.084;2022-07-29T00:03:05;19.20;99.90
1594;DHT22;790;47.000;16.084;2022-07-29T00:05:34;19.20;99.90
1594;DHT22;790;47.000;16.084;2022-07-29T00:08:01;19.20;99.90
1594;DHT22;790;47.000;16.084;2022-07-29T00:10:28;19.20;99.90
1594;DHT22;790;47.000;16.084;2022-07-29T00:12:55;19.20;99.90
1594;DHT22;790;47.000;16.084;2022-07-29T00:15:22;19.20;99.90
1594;DHT22;790;47.000;16.084;2022-07-29T00:17:49;19.20;99.90
1594;DHT22;790;47.000;16.084;2022-07-29T00:20:16;19.20;99.90
1594;DHT22;790;47.000;16.084;2022-07-29T00:22:45;19.20;99.90
1594;DHT22;790;47.000;16.084;2022-07-29T00:25:12;19.10;99.90
1594;DHT22;790;47.000;16.084;2022-07-29T00:27:39;19.10;99.90
1594;DHT22;790;47.000;16.084;2022-07-29T00:30:07;19.10;99.90
1594;DHT22;790;47.000;16.084;2022-07-29T00:32:34;19.00;99.90
1594;DHT22;790;47.000;16.084;2022-07-29T00:35:01;19.00;99.90
1594;DHT22;790;47.000;16.084;2022-07-29T00:37:47;18.90;99.90
1594;DHT22;790;47.000;16.084;2022-07-29T00:40:14;18.80;99.90
1594;DHT22;790;47.000;16.084;2022-07-29T00:42:42;18.80;99.90
1594;DHT22;790;47.000;16.084;2022-07-29T00:45:10;18.70;99.90
1594;DHT22;790;47.000;16.084;2022-07-29T00:47:37;18.70;99.90
1594;DHT22;790;47.000;16.084;2022-07-29T00:50:05;18.70;99.90
1594;DHT22;790;47.000;16.084;2022-07-29T00:52:33;18.80;99.90
1594;DHT22;790;47.000;16.084;2022-07-29T00:55:02;18.80;99.90
1594;DHT22;790;47.000;16.084;2022-07-29T00:57:30;18.90;99.90
1594;DHT22;790;47.000;16.084;2022-07-29T00:59:57;18.90;99.90
1594;DHT22;790;47.000;16.084;2022-07-29T01:02:24;18.90;99.90
1594;DHT22;790;47.000;16.084;2022-07-29T01:04:51;18.90;99.90
1594;DHT22;790;47.000;16.084;2022-07-29T01:07:18;18.80;99.90
1594;DHT22;790;47.000;16.084;2022-07-29T01:09:46;18.80;99.90
1594;DHT22;790;47.000;16.084;2022-07-29T01:12:17;18.90;99.90
1594;DHT22;790;47.000;16.084;2022-07-29T01:14:45;18.90;99.90
1594;DHT22;790;47.000;16.084;2022-07-29T01:17:17;18.90;99.90
1594;DHT22;790;47.000;16.084;2022-07-29T01:19:51;18.90;99.90
1594;DHT22;790;47.000;16.084;2022-07-29T01:22:34;18.80;99.90
1594;DHT22;790;47.000;16.084;2022-07-29T01:25:11;18.90;99.90
1594;DHT22;790;47.000;16.084;2022-07-29T01:27:51;18.90;99.90
1594;DHT22;790;47.000;16.084;2022-07-29T01:30:26;18.90;99.90
1594;DHT22;790;47.000;16.084;2022-07-29T01:32:56;18.90;99.90
1594;DHT22;790;47.000;16.084;2022-07-29T01:35:28;18.90;99.90
1594;DHT22;790;47.000;16.084;2022-07-29T01:38:03;18.90;99.90
1594;DHT22;790;47.000;16.084;2022-07-29T01:40:35;18.80;99.90
1594;DHT22;790;47.000;16.084;2022-07-29T01:43:11;18.70;99.90
1594;DHT22;790;47.000;16.084;2022-07-29T01:45:42;18.60;99.90
1594;DHT22;790;47.000;16.084;2022-07-29T01:48:13;18.60;99.90
1594;DHT22;790;47.000;16.084;2022-07-29T01:50:46;18.60;99.90
1594;DHT22;790;47.000;16.084;2022-07-29T01:53:18;18.60;99.90
1594;DHT22;790;47.000;16.084;2022-07-29T01:55:48;18.60;99.90
1594;DHT22;790;47.000;16.084;2022-07-29T01:58:19;18.60;99.90
1594;DHT22;790;47.000;16.084;2022-07-29T02:00:49;18.50;99.90
1594;DHT22;790;47.000;16.084;2022-07-29T02:03:17;18.50;99.90
1594;DHT22;790;47.000;16.084;2022-07-29T02:05:46;18.60;99.90
1594;DHT22;790;47.000;16.084;2022-07-29T02:08:16;18.60;99.90
1594;DHT22;790;47.000;16.084;2022-07-29T02:10:46;18.60;99.90
1594;DHT22;790;47.000;16.084;2022-07-29T02:13:15;18.60;99.90
1594;DHT22;790;47.000;16.084;2022-07-29T02:15:44;18.70;99.90
1594;DHT22;790;47.000;16.084;2022-07-29T02:18:16;18.70;99.90
1594;DHT22;790;47.000;16.084;2022-07-29T02:20:47;18.70;99.90
1594;DHT22;790;47.000;16.084;2022-07-29T02:23:17;18.70;99.90
1594;DHT22;790;47.000;16.084;2022-07-29T02:25:45;18.70;99.90
1594;DHT22;790;47.000;16.084;2022-07-29T02:28:16;18.70;99.90
1594;DHT22;790;47.000;16.084;2022-07-29T02:30:44;18.70;99.90
1594;DHT22;790;47.000;16.084;2022-07-29T02:33:15;18.80;99.90
1594;DHT22;790;47.000;16.084;2022-07-29T02:35:45;18.80;99.90
1594;DHT22;790;47.000;16.084;2022-07-29T02:38:15;18.80;99.90
1594;DHT22;790;47.000;16.084;2022-07-29T02:41:02;18.80;99.90
1594;DHT22;790;47.000;16.084;2022-07-29T02:43:31;18.90;99.90
1594;DHT22;790;47.000;16.084;2022-07-29T02:46:00;18.80;99.90
1594;DHT22;790;47.000;16.084;2022-07-29T02:48:36;18.80;99.90
1594;DHT22;790;47.000;16.084;2022-07-29T02:51:08;18.70;99.90
1594;DHT22;790;47.000;16.084;2022-07-29T02:53:38;18.70;99.90
1594;DHT22;790;47.000;16.084;2022-07-29T02:56:12;18.70;99.90
1594;DHT22;790;47.000;16.084;2022-07-29T02:58:42;18.80;99.90
1594;DHT22;790;47.000;16.084;2022-07-29T03:01:14;18.80;99.90
1594;DHT22;790;47.000;16.084;2022-07-29T03:03:45;18.80;99.90
1594;DHT22;790;47.000;16.084;2022-07-29T03:06:14;18.90;99.90
1594;DHT22;790;47.000;16.084;2022-07-29T03:08:42;19.00;99.90
1594;DHT22;790;47.000;16.084;2022-07-29T03:11:11;19.00;99.90
1594;DHT22;790;47.000;16.084;2022-07-29T03:13:39;19.00;99.90
1594;DHT22;790;47.000;16.084;2022-07-29T03:16:07;19.00;99.90
1594;DHT22;790;47.000;16.084;2022-07-29T03:18:35;19.00;99.90
1594;DHT22;790;47.000;16.084;2022-07-29T03:21:04;18.90;99.90
1594;DHT22;790;47.000;16.084;2022-07-29T03:23:31;18.90;99.90
1594;DHT22;790;47.000;16.084;2022-07-29T03:25:58;18.90;99.90
1594;DHT22;790;47.000;16.084;2022-07-29T03:28:25;18.90;99.90
1594;DHT22;790;47.000;16.084;2022-07-29T03:30:54;18.80;99.90
1594;DHT22;790;47.000;16.084;2022-07-29T03:33:21;18.80;99.90
1594;DHT22;790;47.000;16.084;2022-07-29T03:35:48;18.70;99.90
1594;DHT22;790;47.000;16.084;2022-07-29T03:38:17;18.70;99.90
1594;DHT22;790;47.000;16.084;2022-07-29T03:40:48;18.70;99.90
1594;DHT22;790;47.000;16.084;2022-07-29T03:43:17;18.70;99.90
1594;DHT22;790;47.000;16.084;2022-07-29T03:45:47;18.70;99.90
1594;DHT22;790;47.000;16.084;2022-07-29T03:48:19;18.60;99.90
1594;DHT22;790;47.000;16.084;2022-07-29T03:50:48;18.60;99.90
1594;DHT22;790;47.000;16.084;2022-07-29T03:53:17;18.50;99.90
1594;DHT22;790;47.000;16.084;2022-07-29T03:55:47;18.50;99.90
1594;DHT22;790;47.000;16.084;2022-07-29T03:58:16;18.50;99.90
1594;DHT22;790;47.000;16.084;2022-07-29T04:00:46;18.50;99.90
1594;DHT22;790;47.000;16.084;2022-07-29T04:03:14;18.50;99.90
1594;DHT22;790;47.000;16.084;2022-07-29T04:05:41;18.40;99.90
1594;DHT22;790;47.000;16.084;2022-07-29T04:08:08;18.40;99.90
1594;DHT22;790;47.000;16.084;2022-07-29T04:10:37;18.40;99.90
1594;DHT22;790;47.000;16.084;2022-07-29T04:13:04;18.40;99.90
1594;DHT22;790;47.000;16.084;2022-07-29T04:15:31;18.40;99.90
1594;DHT22;790;47.000;16.084;2022-07-29T04:17:59;18.50;99.90
1594;DHT22;790;47.000;16.084;2022-07-29T04:20:26;18.40;99.90
1594;DHT22;790;47.000;16.084;2022-07-29T04:22:53;18.40;99.90
1594;DHT22;790;47.000;16.084;2022-07-29T04:25:20;18.40;99.90
1594;DHT22;790;47.000;16.084;2022-07-29T04:27:49;18.40;99.90
1594;DHT22;790;47.000;16.084;2022-07-29T04:30:33;18.40;99.90
1594;DHT22;790;47.000;16.084;2022-07-29T04:33:01;18.50;99.90
1594;DHT22;790;47.000;16.084;2022-07-29T04:35:28;18.40;99.90
1594;DHT22;790;47.000;16.084;2022-07-29T04:37:56;18.40;99.90
1594;DHT22;790;47.000;16.084;2022-07-29T04:40:23;18.40;99.90
1594;DHT22;790;47.000;16.084;2022-07-29T04:42:51;18.40;99.90
1594;DHT22;790;47.000;16.084;2022-07-29T04:45:18;18.40;99.90
1594;DHT22;790;47.000;16.084;2022-07-29T04:47:46;18.40;99.90
1594;DHT22;790;47.000;16.084;2022-07-29T04:50:13;18.40;99.90
1594;DHT22;790;47.000;16.084;2022-07-29T04:52:40;18.40;99.90
1594;DHT22;790;47.000;16.084;2022-07-29T04:55:08;18.50;99.90
1594;DHT22;790;47.000;16.084;2022-07-29T04:57:35;18.60;99.90
1594;DHT22;790;47.000;16.084;2022-07-29T05:00:05;18.60;99.90
1594;DHT22;790;47.000;16.084;2022-07-29T05:02:32;18.60;99.90
1594;DHT22;790;47.000;16.084;2022-07-29T05:04:59;18.70;99.90
1594;DHT22;790;47.000;16.084;2022-07-29T05:07:26;18.70;99.90
1594;DHT22;790;47.000;16.084;2022-07-29T05:09:54;18.80;99.90
1594;DHT22;790;47.000;16.084;2022-07-29T05:12:22;18.80;99.90
1594;DHT22;790;47.000;16.084;2022-07-29T05:14:49;18.80;99.90
1594;DHT22;790;47.000;16.084;2022-07-29T05:17:18;18.90;99.90
1594;DHT22;790;47.000;16.084;2022-07-29T05:19:45;18.90;99.90
1594;DHT22;790;47.000;16.084;2022-07-29T05:22:12;19.00;99.90
1594;DHT22;790;47.000;16.084;2022-07-29T05:24:39;19.10;99.90
1594;DHT22;790;47.000;16.084;2022-07-29T05:27:07;19.10;99.90
1594;DHT22;790;47.000;16.084;2022-07-29T05:29:35;19.20;99.90
1594;DHT22;790;47.000;16.084;2022-07-29T05:32:02;19.30;99.90
1594;DHT22;790;47.000;16.084;2022-07-29T05:34:31;19.40;99.90
1594;DHT22;790;47.000;16.084;2022-07-29T05:36:58;19.50;99.90
1594;DHT22;790;47.000;16.084;2022-07-29T05:39:25;19.60;99.90
1594;DHT22;790;47.000;16.084;2022-07-29T05:41:52;19.60;99.90
1594;DHT22;790;47.000;16.084;2022-07-29T05:44:19;19.70;99.90
1594;DHT22;790;47.000;16.084;2022-07-29T05:46:46;19.70;99.90
1594;DHT22;790;47.000;16.084;2022-07-29T05:49:13;19.80;99.90
1594;DHT22;790;47.000;16.084;2022-07-29T05:51:42;19.90;99.90
1594;DHT22;790;47.000;16.084;2022-07-29T05:54:10;20.00;99.90
1594;DHT22;790;47.000;16.084;2022-07-29T05:56:37;20.10;99.90
1594;DHT22;790;47.000;16.084;2022-07-29T05:59:04;20.10;99.90
1594;DHT22;790;47.000;16.084;2022-07-29T06:01:31;20.20;99.90
1594;DHT22;790;47.000;16.084;2022-07-29T06:03:59;20.20;99.90
1594;DHT22;790;47.000;16.084;2022-07-29T06:06:26;20.30;99.90
1594;DHT22;790;47.000;16.084;2022-07-29T06:08:54;20.40;99.90
1594;DHT22;790;47.000;16.084;2022-07-29T06:11:21;20.40;99.90
1594;DHT22;790;47.000;16.084;2022-07-29T06:13:48;20.50;99.90
1594;DHT22;790;47.000;16.084;2022-07-29T06:16:15;20.60;99.90
1594;DHT22;790;47.000;16.084;2022-07-29T06:18:42;20.60;99.90
1594;DHT22;790;47.000;16.084;2022-07-29T06:21:10;20.70;99.90
1594;DHT22;790;47.000;16.084;2022-07-29T06:23:37;20.70;99.90
1594;DHT22;790;47.000;16.084;2022-07-29T06:26:05;20.80;99.90
1594;DHT22;790;47.000;16.084;2022-07-29T06:28:32;20.90;99.90
1594;DHT22;790;47.000;16.084;2022-07-29T06:31:00;21.00;99.90
1594;DHT22;790;47.000;16.084;2022-07-29T06:33:27;21.00;99.90
1594;DHT22;790;47.000;16.084;2022-07-29T06:35:54;21.10;99.90
1594;DHT22;790;47.000;16.084;2022-07-29T06:38:21;21.20;99.90
1594;DHT22;790;47.000;16.084;2022-07-29T06:40:48;21.20;99.90
1594;DHT22;790;47.000;16.084;2022-07-29T06:43:31;21.40;99.90
1594;DHT22;790;47.000;16.084;2022-07-29T06:46:03;21.50;99.90
1594;DHT22;790;47.000;16.084;2022-07-29T06:48:30;21.50;99.90
1594;DHT22;790;47.000;16.084;2022-07-29T06:50:57;21.70;99.90
1594;DHT22;790;47.000;16.084;2022-07-29T06:53:24;21.80;99.90
1594;DHT22;790;47.000;16.084;2022-07-29T06:55:52;21.90;99.90
1594;DHT22;790;47.000;16.084;2022-07-29T06:58:19;22.00;99.90
1594;DHT22;790;47.000;16.084;2022-07-29T07:00:48;22.00;99.90
1594;DHT22;790;47.000;16.084;2022-07-29T07:03:15;22.00;99.90
1594;DHT22;790;47.000;16.084;2022-07-29T07:05:42;22.10;99.90
1594;DHT22;790;47.000;16.084;2022-07-29T07:08:10;22.30;99.90
1594;DHT22;790;47.000;16.084;2022-07-29T07:10:38;22.40;99.90
1594;DHT22;790;47.000;16.084;2022-07-29T07:13:05;22.50;99.90
1594;DHT22;790;47.000;16.084;2022-07-29T07:15:32;22.70;99.90
1594;DHT22;790;47.000;16.084;2022-07-29T07:18:01;22.90;99.90
1594;DHT22;790;47.000;16.084;2022-07-29T07:20:28;23.10;99.90
1594;DHT22;790;47.000;16.084;2022-07-29T07:22:55;23.20;99.90
1594;DHT22;790;47.000;16.084;2022-07-29T07:25:22;23.30;99.90
1594;DHT22;790;47.000;16.084;2022-07-29T07:27:49;23.50;99.90
1594;DHT22;790;47.000;16.084;2022-07-29T07:30:16;23.50;99.90
1594;DHT22;790;47.000;16.084;2022-07-29T07:32:43;23.60;99.90
1594;DHT22;790;47.000;16.084;2022-07-29T07:35:12;23.80;99.90
1594;DHT22;790;47.000;16.084;2022-07-29T07:37:39;23.90;99.90
1594;DHT22;790;47.000;16.084;2022-07-29T07:40:08;24.00;99.90
1594;DHT22;790;47.000;16.084;2022-07-29T07:42:37;24.10;99.90
1594;DHT22;790;47.000;16.084;2022-07-29T07:45:04;24.20;99.90
1594;DHT22;790;47.000;16.084;2022-07-29T07:47:32;24.40;99.90
1594;DHT22;790;47.000;16.084;2022-07-29T07:49:59;24.50;99.90
1594;DHT22;790;47.000;16.084;2022-07-29T07:52:28;24.50;99.90
1594;DHT22;790;47.000;16.084;2022-07-29T07:54:55;24.70;99.90
1594;DHT22;790;47.000;16.084;2022-07-29T07:57:22;24.90;99.90
1594;DHT22;790;47.000;16.084;2022-07-29T07:59:49;25.00;99.90
1594;DHT22;790;47.000;16.084;2022-07-29T08:02:16;25.20;99.90
1594;DHT22;790;47.000;16.084;2022-07-29T08:04:43;25.40;99.90
1594;DHT22;790;47.000;16.084;2022-07-29T08:07:10;25.40;99.90
1594;DHT22;790;47.000;16.084;2022-07-29T08:09:38;25.40;99.90
1594;DHT22;790;47.000;16.084;2022-07-29T08:12:06;25.60;99.90
1594;DHT22;790;47.000;16.084;2022-07-29T08:14:33;25.80;99.90
1594;DHT22;790;47.000;16.084;2022-07-29T08:17:02;25.80;99.90
1594;DHT22;790;47.000;16.084;2022-07-29T08:19:29;26.00;99.90
1594;DHT22;790;47.000;16.084;2022-07-29T08:21:56;26.10;99.90
1594;DHT22;790;47.000;16.084;2022-07-29T08:24:23;26.20;99.90
1594;DHT22;790;47.000;16.084;2022-07-29T08:27:18;26.30;99.90
1594;DHT22;790;47.000;16.084;2022-07-29T08:29:46;26.50;99.90
1594;DHT22;790;47.000;16.084;2022-07-29T08:32:14;26.60;99.90
1594;DHT22;790;47.000;16.084;2022-07-29T08:34:41;26.70;99.90
1594;DHT22;790;47.000;16.084;2022-07-29T08:37:08;26.90;99.90
1594;DHT22;790;47.000;16.084;2022-07-29T08:39:35;27.00;99.90
1594;DHT22;790;47.000;16.084;2022-07-29T08:42:02;27.20;99.90
1594;DHT22;790;47.000;16.084;2022-07-29T08:44:31;27.30;99.90
1594;DHT22;790;47.000;16.084;2022-07-29T08:46:59;27.40;99.90
1594;DHT22;790;47.000;16.084;2022-07-29T08:49:26;27.40;99.90
1594;DHT22;790;47.000;16.084;2022-07-29T08:51:53;27.40;99.90
1594;DHT22;790;47.000;16.084;2022-07-29T08:54:22;27.50;99.90
1594;DHT22;790;47.000;16.084;2022-07-29T08:56:50;27.50;99.90
1594;DHT22;790;47.000;16.084;2022-07-29T08:59:20;27.70;99.90
1594;DHT22;790;47.000;16.084;2022-07-29T09:01:53;28.00;99.90
1594;DHT22;790;47.000;16.084;2022-07-29T09:04:21;28.10;99.90
1594;DHT22;790;47.000;16.084;2022-07-29T09:06:52;28.20;99.90
1594;DHT22;790;47.000;16.084;2022-07-29T09:09:21;28.30;99.90
1594;DHT22;790;47.000;16.084;2022-07-29T09:11:48;28.30;99.90
1594;DHT22;790;47.000;16.084;2022-07-29T09:14:15;28.30;99.90
1594;DHT22;790;47.000;16.084;2022-07-29T09:16:52;28.20;99.90
1594;DHT22;790;47.000;16.084;2022-07-29T09:19:21;28.20;99.90
1594;DHT22;790;47.000;16.084;2022-07-29T09:21:48;28.10;99.90
1594;DHT22;790;47.000;16.084;2022-07-29T09:24:36;28.20;99.90
1594;DHT22;790;47.000;16.084;2022-07-29T09:27:09;28.30;99.90
1594;DHT22;790;47.000;16.084;2022-07-29T09:29:37;28.30;99.90
1594;DHT22;790;47.000;16.084;2022-07-29T09:32:09;28.50;99.90
1594;DHT22;790;47.000;16.084;2022-07-29T09:34:37;28.60;99.90
1594;DHT22;790;47.000;16.084;2022-07-29T09:37:04;28.60;99.90
1594;DHT22;790;47.000;16.084;2022-07-29T09:39:33;28.70;99.90
1594;DHT22;790;47.000;16.084;2022-07-29T09:42:03;28.80;99.90
1594;DHT22;790;47.000;16.084;2022-07-29T09:44:44;28.90;99.90
1594;DHT22;790;47.000;16.084;2022-07-29T09:47:14;29.00;99.90
1594;DHT22;790;47.000;16.084;2022-07-29T09:49:52;29.00;99.90
1594;DHT22;790;47.000;16.084;2022-07-29T09:52:20;29.10;99.90
1594;DHT22;790;47.000;16.084;2022-07-29T09:54:48;29.30;99.90
1594;DHT22;790;47.000;16.084;2022-07-29T09:57:23;29.40;99.90
1594;DHT22;790;47.000;16.084;2022-07-29T09:59:58;29.50;99.90
1594;DHT22;790;47.000;16.084;2022-07-29T10:02:31;29.50;99.90
1594;DHT22;790;47.000;16.084;2022-07-29T10:04:59;29.50;99.90
1594;DHT22;790;47.000;16.084;2022-07-29T10:07:27;29.40;99.90
1594;DHT22;790;47.000;16.084;2022-07-29T10:10:09;29.40;99.90
1594;DHT22;790;47.000;16.084;2022-07-29T10:12:48;29.40;99.90
1594;DHT22;790;47.000;16.084;2022-07-29T10:15:16;29.30;99.90
1594;DHT22;790;47.000;16.084;2022-07-29T10:17:45;29.20;99.90
1594;DHT22;790;47.000;16.084;2022-07-29T10:20:14;29.20;99.70
1594;DHT22;790;47.000;16.084;2022-07-29T10:22:42;29.10;99.90
1594;DHT22;790;47.000;16.084;2022-07-29T10:25:10;29.10;99.90
1594;DHT22;790;47.000;16.084;2022-07-29T10:27:37;29.00;99.90
1594;DHT22;790;47.000;16.084;2022-07-29T10:30:05;29.00;99.90
1594;DHT22;790;47.000;16.084;2022-07-29T10:32:54;29.00;99.90
1594;DHT22;790;47.000;16.084;2022-07-29T10:35:44;29.00;99.50
1594;DHT22;790;47.000;16.084;2022-07-29T10:38:28;29.00;99.90
1594;DHT22;790;47.000;16.084;2022-07-29T10:41:08;28.90;99.90
1594;DHT22;790;47.000;16.084;2022-07-29T10:43:55;28.80;99.90
1594;DHT22;790;47.000;16.084;2022-07-29T10:46:24;28.70;99.90
1594;DHT22;790;47.000;16.084;2022-07-29T10:49:21;28.70;99.90
1594;DHT22;790;47.000;16.084;2022-07-29T10:51:54;28.80;99.90
1594;DHT22;790;47.000;16.084;2022-07-29T10:54:42;28.90;99.90
1594;DHT22;790;47.000;16.084;2022-07-29T10:57:15;28.90;99.90
1594;DHT22;790;47.000;16.084;2022-07-29T10:59:43;29.00;99.90
1594;DHT22;790;47.000;16.084;2022-07-29T11:02:42;29.00;99.90
1594;DHT22;790;47.000;16.084;2022-07-29T11:05:12;29.20;98.30
1594;DHT22;790;47.000;16.084;2022-07-29T11:08:20;29.20;96.40
1594;DHT22;790;47.000;16.084;2022-07-29T11:10:50;29.20;98.50
1594;DHT22;790;47.000;16.084;2022-07-29T11:13:48;29.30;98.10
1594;DHT22;790;47.000;16.084;2022-07-29T11:16:17;29.30;99.00
1594;DHT22;790;47.000;16.084;2022-07-29T11:19:21;29.40;97.70
1594;DHT22;790;47.000;16.084;2022-07-29T11:21:49;29.40;97.60
1594;DHT22;790;47.000;16.084;2022-07-29T11:24:20;29.40;97.10
1594;DHT22;790;47.000;16.084;2022-07-29T11:27:22;29.40;99.90
1594;DHT22;790;47.000;16.084;2022-07-29T11:29:58;29.60;99.40
1594;DHT22;790;47.000;16.084;2022-07-29T11:32:36;29.60;99.00
1594;DHT22;790;47.000;16.084;2022-07-29T11:35:18;29.70;98.70
1594;DHT22;790;47.000;16.084;2022-07-29T11:38:23;29.90;98.50
1594;DHT22;790;47.000;16.084;2022-07-29T11:41:23;30.00;98.50
1594;DHT22;790;47.000;16.084;2022-07-29T11:43:52;30.00;97.90
1594;DHT22;790;47.000;16.084;2022-07-29T11:46:42;29.90;98.00
1594;DHT22;790;47.000;16.084;2022-07-29T11:49:11;30.00;98.80
1594;DHT22;790;47.000;16.084;2022-07-29T11:51:42;30.00;98.60
1594;DHT22;790;47.000;16.084;2022-07-29T11:54:22;30.00;99.00
1594;DHT22;790;47.000;16.084;2022-07-29T11:56:52;30.10;96.80
1594;DHT22;790;47.000;16.084;2022-07-29T11:59:20;30.10;97.20
1594;DHT22;790;47.000;16.084;2022-07-29T12:01:54;30.10;98.70
1594;DHT22;790;47.000;16.084;2022-07-29T12:04:22;30.20;97.00
1594;DHT22;790;47.000;16.084;2022-07-29T12:06:50;30.10;99.90
1594;DHT22;790;47.000;16.084;2022-07-29T12:09:17;30.10;98.70
1594;DHT22;790;47.000;16.084;2022-07-29T12:11:45;30.00;99.10
1594;DHT22;790;47.000;16.084;2022-07-29T12:14:26;30.00;98.80
1594;DHT22;790;47.000;16.084;2022-07-29T12:16:54;30.10;98.20
1594;DHT22;790;47.000;16.084;2022-07-29T12:19:21;29.90;97.20
1594;DHT22;790;47.000;16.084;2022-07-29T12:21:50;29.90;97.90
1594;DHT22;790;47.000;16.084;2022-07-29T12:24:18;29.70;97.30
1594;DHT22;790;47.000;16.084;2022-07-29T12:26:50;29.80;98.30
1594;DHT22;790;47.000;16.084;2022-07-29T12:29:18;29.90;98.50
1594;DHT22;790;47.000;16.084;2022-07-29T12:31:48;30.10;99.90
1594;DHT22;790;47.000;16.084;2022-07-29T12:34:22;30.10;97.00
1594;DHT22;790;47.000;16.084;2022-07-29T12:36:49;30.30;99.90
1594;DHT22;790;47.000;16.084;2022-07-29T12:39:17;30.30;97.80
1594;DHT22;790;47.000;16.084;2022-07-29T12:41:44;30.20;97.30
1594;DHT22;790;47.000;16.084;2022-07-29T12:44:12;30.00;96.20
1594;DHT22;790;47.000;16.084;2022-07-29T12:46:39;30.00;96.70
1594;DHT22;790;47.000;16.084;2022-07-29T12:49:08;29.90;98.50
1594;DHT22;790;47.000;16.084;2022-07-29T12:51:36;30.00;99.90
1594;DHT22;790;47.000;16.084;2022-07-29T12:54:06;30.10;98.30
1594;DHT22;790;47.000;16.084;2022-07-29T12:56:34;30.10;99.00
1594;DHT22;790;47.000;16.084;2022-07-29T12:59:11;30.10;99.70
1594;DHT22;790;47.000;16.084;2022-07-29T13:01:38;30.10;99.90
1594;DHT22;790;47.000;16.084;2022-07-29T13:04:05;30.30;99.70
1594;DHT22;790;47.000;16.084;2022-07-29T13:06:36;30.30;98.30
1594;DHT22;790;47.000;16.084;2022-07-29T13:09:11;30.30;98.00
1594;DHT22;790;47.000;16.084;2022-07-29T13:11:40;30.40;99.00
1594;DHT22;790;47.000;16.084;2022-07-29T13:14:10;30.40;99.00
1594;DHT22;790;47.000;16.084;2022-07-29T13:16:59;30.40;99.90
1594;DHT22;790;47.000;16.084;2022-07-29T13:19:34;30.30;99.20
1594;DHT22;790;47.000;16.084;2022-07-29T13:22:02;30.10;99.40
1594;DHT22;790;47.000;16.084;2022-07-29T13:24:30;29.90;98.10
1594;DHT22;790;47.000;16.084;2022-07-29T13:26:57;29.80;97.60
1594;DHT22;790;47.000;16.084;2022-07-29T13:29:24;29.80;99.90
1594;DHT22;790;47.000;16.084;2022-07-29T13:31:52;29.70;99.90
1594;DHT22;790;47.000;16.084;2022-07-29T13:34:19;29.60;99.90
1594;DHT22;790;47.000;16.084;2022-07-29T13:36:47;29.60;99.90
1594;DHT22;790;47.000;16.084;2022-07-29T13:39:17;29.50;99.90
1594;DHT22;790;47.000;16.084;2022-07-29T13:41:44;29.50;99.90
1594;DHT22;790;47.000;16.084;2022-07-29T13:44:11;29.40;99.90
1594;DHT22;790;47.000;16.084;2022-07-29T13:46:38;29.40;99.90
1594;DHT22;790;47.000;16.084;2022-07-29T13:49:05;29.20;99.90
1594;DHT22;790;47.000;16.084;2022-07-29T13:51:32;29.20;99.90
1594;DHT22;790;47.000;16.084;2022-07-29T13:54:00;29.10;99.90
1594;DHT22;790;47.000;16.084;2022-07-29T13:56:28;29.10;99.90
1594;DHT22;790;47.000;16.084;2022-07-29T13:58:55;29.10;99.90
1594;DHT22;790;47.000;16.084;2022-07-29T14:01:23;29.10;99.90
1594;DHT22;790;47.000;16.084;2022-07-29T14:03:50;29.20;99.90
1594;DHT22;790;47.000;16.084;2022-07-29T14:06:17;29.20;99.90
1594;DHT22;790;47.000;16.084;2022-07-29T14:08:44;29.10;99.90
1594;DHT22;790;47.000;16.084;2022-07-29T14:11:11;29.10;99.90
1594;DHT22;790;47.000;16.084;2022-07-29T14:13:40;29.10;99.90
1594;DHT22;790;47.000;16.084;2022-07-29T14:16:07;29.10;99.90
1594;DHT22;790;47.000;16.084;2022-07-29T14:18:34;29.10;99.90
1594;DHT22;790;47.000;16.084;2022-07-29T14:21:01;28.90;99.90
1594;DHT22;790;47.000;16.084;2022-07-29T14:23:29;28.80;99.90
1594;DHT22;790;47.000;16.084;2022-07-29T14:25:56;28.70;99.90
1594;DHT22;790;47.000;16.084;2022-07-29T14:28:23;28.60;99.90
1594;DHT22;790;47.000;16.084;2022-07-29T14:30:51;28.60;99.90
1594;DHT22;790;47.000;16.084;2022-07-29T14:33:19;28.40;99.90
1594;DHT22;790;47.000;16.084;2022-07-29T14:35:46;28.30;99.90
1594;DHT22;790;47.000;16.084;2022-07-29T14:38:14;28.00;99.90
1594;DHT22;790;47.000;16.084;2022-07-29T14:40:41;27.90;99.90
1594;DHT22;790;47.000;16.084;2022-07-29T14:43:08;27.90;99.90
1594;DHT22;790;47.000;16.084;2022-07-29T14:45:35;27.80;99.90
1594;DHT22;790;47.000;16.084;2022-07-29T14:48:04;27.70;99.90
1594;DHT22;790;47.000;16.084;2022-07-29T14:50:31;27.60;99.90
1594;DHT22;790;47.000;16.084;2022-07-29T14:52:58;27.50;99.90
1594;DHT22;790;47.000;16.084;2022-07-29T14:55:25;27.50;99.90
1594;DHT22;790;47.000;16.084;2022-07-29T14:57:52;27.40;99.90
1594;DHT22;790;47.000;16.084;2022-07-29T15:00:19;27.30;99.90
1594;DHT22;790;47.000;16.084;2022-07-29T15:02:47;27.20;99.90
1594;DHT22;790;47.000;16.084;2022-07-29T15:05:16;27.10;99.90
1594;DHT22;790;47.000;16.084;2022-07-29T15:07:43;27.10;99.90
1594;DHT22;790;47.000;16.084;2022-07-29T15:10:10;27.10;99.90
1594;DHT22;790;47.000;16.084;2022-07-29T15:12:37;27.00;99.90
1594;DHT22;790;47.000;16.084;2022-07-29T15:15:05;27.00;99.90
1594;DHT22;790;47.000;16.084;2022-07-29T15:17:33;26.90;99.90
1594;DHT22;790;47.000;16.084;2022-07-29T15:20:00;27.00;99.90
1594;DHT22;790;47.000;16.084;2022-07-29T15:22:28;26.90;99.90
1594;DHT22;790;47.000;16.084;2022-07-29T15:24:55;26.90;99.90
1594;DHT22;790;47.000;16.084;2022-07-29T15:27:22;26.90;99.90
1594;DHT22;790;47.000;16.084;2022-07-29T15:29:49;26.80;99.90
1594;DHT22;790;47.000;16.084;2022-07-29T15:32:16;26.90;99.90
1594;DHT22;790;47.000;16.084;2022-07-29T15:34:43;26.90;99.90
1594;DHT22;790;47.000;16.084;2022-07-29T15:37:10;26.90;99.90
1594;DHT22;790;47.000;16.084;2022-07-29T15:39:39;27.00;99.90
1594;DHT22;790;47.000;16.084;2022-07-29T15:42:06;27.00;99.90
1594;DHT22;790;47.000;16.084;2022-07-29T15:44:33;27.10;99.90
1594;DHT22;790;47.000;16.084;2022-07-29T15:47:01;27.20;99.90
1594;DHT22;790;47.000;16.084;2022-07-29T15:49:32;27.20;99.90
1594;DHT22;790;47.000;16.084;2022-07-29T15:52:00;27.20;99.90
1594;DHT22;790;47.000;16.084;2022-07-29T15:54:29;27.30;99.90
1594;DHT22;790;47.000;16.084;2022-07-29T15:56:57;27.40;99.90
1594;DHT22;790;47.000;16.084;2022-07-29T15:59:25;27.50;99.90
1594;DHT22;790;47.000;16.084;2022-07-29T16:01:52;27.60;99.90
1594;DHT22;790;47.000;16.084;2022-07-29T16:04:19;27.70;99.90
1594;DHT22;790;47.000;16.084;2022-07-29T16:06:47;27.80;99.90
1594;DHT22;790;47.000;16.084;2022-07-29T16:09:15;27.90;99.90
1594;DHT22;790;47.000;16.084;2022-07-29T16:11:42;28.00;99.90
1594;DHT22;790;47.000;16.084;2022-07-29T16:14:12;28.20;99.90
1594;DHT22;790;47.000;16.084;2022-07-29T16:16:39;28.20;99.90
1594;DHT22;790;47.000;16.084;2022-07-29T16:19:07;28.20;99.90